Terminal Aerodrome Forecast
Issued by NWS Sterling, VA

Home | Current Version | Previous Version | Text Only | Print | Product List | Glossary On
Versions: 1 2 3 4 5 6 7 8 9 10 11 12 13 14 15 16 17 18 19 20 21 22 23
000
FTUS41 KLWX 010500
TAFBWI
TAF
KBWI 010538Z 0106/0212 06004KT P6SM SCT008 BKN030
      TEMPO 0107/0110 VRB04KT 5SM BR BKN008 BKN035
     FM011200 05005KT 5SM BR SCT008 BKN010
     FM011600 05005KT P6SM BKN035
     FM011800 05005KT P6SM SCT060
     FM020600 VRB03KT P6SM SCT035 BKN060=

USA.gov is the U.S. government's official web portal to all federal, state and local government web resources and services.